Terminal Aerodrome Forecast
Issued by NWS

Home | Current Version | Previous Version | Text Only | Print | Product List | Glossary On
Versions: 1 2 3 4 5 6 7 8 9 10 11 12 13 14 15 16
000
FTUS43 KPAH 010745 AAA
TAFOWB
TAF AMD
KOWB 010745Z 0108/0206 18004KT P6SM VCSH SCT030 BKN070
      TEMPO 0108/0110 3SM BR BKN015
     FM011000 00000KT 5SM BR SCT250
     FM011400 24005KT P6SM BKN025
     FM011700 25009G15KT P6SM BKN035
     FM020000 26006KT P6SM VCSH BKN040=

USA.gov is the U.S. government's official web portal to all federal, state and local government web resources and services.